createdAt,value
2018-07-26T00:01:42.133Z,26.60
2018-07-26T00:04:11.303Z,26.70
2018-07-26T00:06:39.626Z,26.60
2018-07-26T00:09:09.418Z,26.60
2018-07-26T00:11:37.796Z,26.60
2018-07-26T00:14:06.206Z,26.50
2018-07-26T00:16:34.643Z,26.50
2018-07-26T00:19:03.004Z,26.40
2018-07-26T00:21:31.378Z,26.40
2018-07-26T00:23:59.719Z,26.40
2018-07-26T00:26:28.043Z,26.40
2018-07-26T00:28:56.407Z,26.40
2018-07-26T00:31:24.816Z,26.30
2018-07-26T00:36:21.257Z,26.20
2018-07-26T00:38:49.607Z,26.20
2018-07-26T00:41:17.975Z,26.20
2018-07-26T00:43:46.311Z,26.20
2018-07-26T00:46:14.680Z,26.20
2018-07-26T00:48:43.073Z,26.10
2018-07-26T00:51:11.412Z,26.10
2018-07-26T00:53:39.752Z,26.10
2018-07-26T00:56:08.115Z,26.10
2018-07-26T00:58:36.452Z,26.10
2018-07-26T01:01:04.859Z,26.10
2018-07-26T01:03:33.196Z,26.00
2018-07-26T01:06:01.578Z,26.00
2018-07-26T01:08:30.044Z,25.90
2018-07-26T01:10:58.413Z,25.90
2018-07-26T01:13:26.737Z,25.90
2018-07-26T01:15:55.092Z,25.80
2018-07-26T01:18:23.452Z,25.80
2018-07-26T01:20:51.812Z,25.70
2018-07-26T01:23:20.137Z,25.70
2018-07-26T01:25:48.516Z,25.60
2018-07-26T01:28:16.835Z,25.60
2018-07-26T01:30:45.186Z,25.50
2018-07-26T01:33:13.504Z,25.50
2018-07-26T01:35:41.878Z,25.50
2018-07-26T01:38:10.209Z,25.50
2018-07-26T01:40:38.608Z,25.50
2018-07-26T01:43:26.119Z,25.40
2018-07-26T01:45:54.479Z,25.40
2018-07-26T01:48:22.807Z,25.40
2018-07-26T01:50:51.155Z,25.30
2018-07-26T01:53:19.487Z,25.30
2018-07-26T01:55:47.851Z,25.30
2018-07-26T01:58:16.181Z,25.30
2018-07-26T02:00:44.557Z,25.20
2018-07-26T02:03:13.578Z,25.20
2018-07-26T02:05:41.921Z,25.20
2018-07-26T02:08:10.280Z,25.10
2018-07-26T02:10:38.644Z,25.00
2018-07-26T02:13:07.016Z,24.90
2018-07-26T02:15:35.367Z,24.90
2018-07-26T02:18:03.766Z,24.90
2018-07-26T02:20:32.108Z,24.80
2018-07-26T02:23:00.428Z,24.80
2018-07-26T02:25:28.777Z,24.70
2018-07-26T02:27:57.100Z,24.70
2018-07-26T02:32:53.508Z,24.70
2018-07-26T02:35:21.852Z,24.70
2018-07-26T02:37:50.164Z,24.70
2018-07-26T02:40:18.512Z,24.60
2018-07-26T02:42:46.827Z,24.60
2018-07-26T02:45:15.181Z,24.60
2018-07-26T02:47:43.543Z,24.50
2018-07-26T02:50:11.893Z,24.50
2018-07-26T02:52:40.251Z,24.50
2018-07-26T02:55:08.611Z,24.50
2018-07-26T02:57:36.947Z,24.50
2018-07-26T03:02:33.412Z,24.40
2018-07-26T03:05:01.803Z,24.40
2018-07-26T03:07:30.145Z,24.40
2018-07-26T03:09:58.471Z,24.30
2018-07-26T03:12:26.940Z,24.30
2018-07-26T03:14:55.271Z,24.20
2018-07-26T03:17:23.669Z,24.20
2018-07-26T03:19:51.994Z,24.20
2018-07-26T03:22:20.351Z,24.20
2018-07-26T03:24:48.688Z,24.10
2018-07-26T03:27:17.051Z,24.10
2018-07-26T03:29:45.408Z,24.10
2018-07-26T03:32:13.763Z,24.10
2018-07-26T03:34:42.104Z,24.00
2018-07-26T03:37:10.444Z,24.00
2018-07-26T03:39:38.760Z,23.90
2018-07-26T03:42:07.122Z,23.90
2018-07-26T03:44:35.466Z,23.90
2018-07-26T03:47:03.839Z,23.80
2018-07-26T03:49:32.168Z,23.70
2018-07-26T03:52:00.520Z,23.70
2018-07-26T03:54:28.842Z,23.60
2018-07-26T03:56:57.215Z,23.60
2018-07-26T03:59:25.822Z,23.60
2018-07-26T04:04:22.248Z,23.60
2018-07-26T04:06:50.630Z,23.60
2018-07-26T04:09:19.004Z,23.60
2018-07-26T04:11:47.579Z,23.60
2018-07-26T04:16:44.038Z,23.60
2018-07-26T04:19:12.641Z,23.60
2018-07-26T04:21:41.559Z,23.60
2018-07-26T04:29:06.607Z,23.70
2018-07-26T04:31:34.962Z,23.70
2018-07-26T04:36:31.354Z,23.70
2018-07-26T04:38:59.708Z,23.80
2018-07-26T04:43:56.144Z,23.80
2018-07-26T04:48:53.057Z,23.90
2018-07-26T04:51:21.418Z,23.90
2018-07-26T04:53:49.768Z,24.00
2018-07-26T04:58:46.177Z,24.00
2018-07-26T05:01:14.527Z,24.10
2018-07-26T05:03:42.871Z,24.10
2018-07-26T05:06:11.239Z,24.10
2018-07-26T05:08:39.575Z,24.10
2018-07-26T05:11:07.935Z,24.20
2018-07-26T05:13:36.303Z,24.20
2018-07-26T05:18:32.859Z,24.30
2018-07-26T05:21:01.157Z,24.30
2018-07-26T05:23:29.515Z,24.40
2018-07-26T05:28:25.928Z,24.50
2018-07-26T05:30:54.255Z,24.50
2018-07-26T05:35:50.730Z,24.60
2018-07-26T05:38:19.084Z,24.60
2018-07-26T05:43:16.318Z,24.80
2018-07-26T05:45:44.570Z,24.80
2018-07-26T05:48:12.914Z,24.90
2018-07-26T05:53:09.367Z,25.00
2018-07-26T05:55:37.711Z,25.10
2018-07-26T05:58:06.073Z,25.10
2018-07-26T06:00:34.428Z,25.10
2018-07-26T06:03:02.800Z,25.30
2018-07-26T06:05:31.371Z,25.30
2018-07-26T06:07:59.920Z,25.40
2018-07-26T06:10:28.524Z,25.40
2018-07-26T06:12:56.887Z,25.40
2018-07-26T06:15:25.244Z,25.50
2018-07-26T06:17:53.588Z,25.50
2018-07-26T06:20:21.906Z,25.60
2018-07-26T06:25:18.319Z,25.70
2018-07-26T06:27:46.706Z,25.70
2018-07-26T06:32:43.087Z,25.80
2018-07-26T06:35:11.519Z,25.90
2018-07-26T06:37:40.283Z,25.90
2018-07-26T06:40:08.647Z,26.00
2018-07-26T06:42:36.991Z,26.00
2018-07-26T06:45:07.124Z,26.10
2018-07-26T06:47:35.467Z,26.20
2018-07-26T06:52:32.190Z,26.40
2018-07-26T06:55:00.549Z,26.40
2018-07-26T06:57:28.887Z,26.50
2018-07-26T06:59:57.260Z,26.50
2018-07-26T07:02:25.603Z,26.50
2018-07-26T07:04:53.963Z,26.60
2018-07-26T07:07:22.308Z,26.70
2018-07-26T07:09:50.671Z,26.80
2018-07-26T07:12:19.039Z,26.80
2018-07-26T07:14:47.391Z,26.90
2018-07-26T07:17:15.731Z,27.00
2018-07-26T07:19:44.079Z,27.10
2018-07-26T07:24:40.491Z,27.30
2018-07-26T07:27:08.843Z,27.40
2018-07-26T07:29:37.197Z,27.40
2018-07-26T07:32:05.583Z,27.40
2018-07-26T07:34:33.936Z,27.60
2018-07-26T07:37:02.264Z,27.70
2018-07-26T07:39:30.611Z,27.70
2018-07-26T07:44:27.091Z,27.80
2018-07-26T07:46:55.434Z,27.90
2018-07-26T07:49:23.771Z,28.00
2018-07-26T07:51:52.126Z,28.10
2018-07-26T07:54:20.482Z,28.20
2018-07-26T07:59:16.920Z,28.50
2018-07-26T08:01:45.259Z,28.60
2018-07-26T08:04:13.643Z,28.70
2018-07-26T08:06:42.001Z,28.80
2018-07-26T08:09:11.612Z,28.90
2018-07-26T08:11:39.951Z,29.00
2018-07-26T08:14:08.947Z,29.10
2018-07-26T08:16:37.315Z,29.10
2018-07-26T08:19:05.957Z,29.20
2018-07-26T08:21:34.324Z,29.30
2018-07-26T08:24:02.988Z,29.40
2018-07-26T08:28:59.468Z,29.60
2018-07-26T08:31:27.825Z,29.60
2018-07-26T08:36:24.281Z,29.90
2018-07-26T08:38:52.627Z,29.90
2018-07-26T08:41:21.357Z,30.00
2018-07-26T08:43:49.692Z,30.10
2018-07-26T08:46:18.136Z,30.20
2018-07-26T08:48:46.485Z,30.20
2018-07-26T08:51:14.847Z,30.30
2018-07-26T08:53:43.185Z,30.40
2018-07-26T08:56:11.559Z,30.50
2018-07-26T08:58:39.936Z,30.50
2018-07-26T09:01:08.361Z,30.60
2018-07-26T09:03:36.687Z,30.70
2018-07-26T09:06:05.098Z,30.80
2018-07-26T09:08:33.428Z,30.80
2018-07-26T09:13:29.968Z,31.00
2018-07-26T09:15:58.303Z,31.10
2018-07-26T09:18:26.668Z,31.30
2018-07-26T09:20:55.049Z,31.30
2018-07-26T09:23:23.409Z,31.50
2018-07-26T09:25:51.777Z,31.50
2018-07-26T09:28:20.101Z,31.60
2018-07-26T09:30:48.452Z,31.60
2018-07-26T09:33:16.814Z,31.70
2018-07-26T09:35:45.187Z,31.80
2018-07-26T09:38:13.523Z,31.80
2018-07-26T09:40:41.876Z,31.90
2018-07-26T09:43:10.209Z,32.00
2018-07-26T09:45:38.575Z,32.10
2018-07-26T09:48:06.940Z,32.20
2018-07-26T09:50:35.294Z,32.30
2018-07-26T09:53:03.644Z,32.40
2018-07-26T09:58:00.070Z,32.50
2018-07-26T10:00:33.859Z,32.60
2018-07-26T10:03:02.180Z,32.80
2018-07-26T10:10:27.077Z,33.20
2018-07-26T10:12:55.432Z,33.30
2018-07-26T10:15:23.767Z,33.50
2018-07-26T10:17:52.123Z,33.60
2018-07-26T10:20:20.447Z,33.70
2018-07-26T10:22:48.807Z,33.80
2018-07-26T10:25:17.136Z,34.00
2018-07-26T10:27:45.566Z,34.00
2018-07-26T10:30:13.887Z,34.20
2018-07-26T10:32:42.239Z,34.30
2018-07-26T10:35:10.571Z,34.30
2018-07-26T10:37:38.936Z,34.50
2018-07-26T10:40:07.281Z,34.60
2018-07-26T10:42:35.647Z,34.70
2018-07-26T10:45:04.055Z,34.80
2018-07-26T10:47:32.407Z,34.90
2018-07-26T10:50:00.773Z,35.10
2018-07-26T10:52:29.151Z,35.10
2018-07-26T10:57:25.555Z,35.10
2018-07-26T10:59:53.910Z,35.20
2018-07-26T11:02:22.286Z,35.20
2018-07-26T11:04:50.611Z,35.30
2018-07-26T11:07:18.965Z,35.40
2018-07-26T11:09:47.296Z,35.50
2018-07-26T11:12:15.643Z,35.70
2018-07-26T11:14:43.956Z,35.70
2018-07-26T11:17:12.312Z,35.90
2018-07-26T11:19:40.719Z,36.00
2018-07-26T11:22:09.075Z,36.20
2018-07-26T11:24:37.412Z,36.40
2018-07-26T11:27:05.816Z,36.50
2018-07-26T11:29:34.165Z,36.60
2018-07-26T11:32:02.521Z,36.70
2018-07-26T11:41:55.084Z,37.10
2018-07-26T11:44:23.420Z,37.20
2018-07-26T11:46:51.821Z,37.30
2018-07-26T11:49:20.116Z,37.40
2018-07-26T11:51:48.467Z,37.50
2018-07-26T11:54:16.812Z,37.60
2018-07-26T11:56:45.139Z,37.70
2018-07-26T11:59:13.558Z,37.80
2018-07-26T12:01:41.890Z,37.80
2018-07-26T12:04:10.252Z,37.80
2018-07-26T12:06:38.580Z,37.80
2018-07-26T12:09:08.851Z,37.90
2018-07-26T12:11:37.191Z,38.10
2018-07-26T12:14:05.580Z,38.20
2018-07-26T12:16:33.917Z,38.30
2018-07-26T12:19:02.280Z,38.50
2018-07-26T12:21:30.636Z,38.60
2018-07-26T12:23:59.053Z,38.70
2018-07-26T12:26:27.400Z,38.80
2018-07-26T12:31:24.040Z,39.00
2018-07-26T12:33:52.384Z,39.10
2018-07-26T12:36:20.742Z,39.10
2018-07-26T12:38:49.098Z,39.10
2018-07-26T12:41:17.426Z,39.20
2018-07-26T12:43:45.787Z,39.20
2018-07-26T12:46:14.120Z,39.30
2018-07-26T12:53:38.605Z,39.70
2018-07-26T12:56:06.956Z,39.80
2018-07-26T12:58:35.312Z,39.80
2018-07-26T13:01:03.694Z,39.90
2018-07-26T13:06:00.115Z,40.40
2018-07-26T13:08:28.503Z,40.40
2018-07-26T13:10:56.837Z,40.50
2018-07-26T13:13:25.192Z,40.60
2018-07-26T13:15:53.569Z,40.60
2018-07-26T13:18:21.929Z,40.70
2018-07-26T13:23:18.364Z,40.90
2018-07-26T13:25:46.695Z,41.00
2018-07-26T13:28:15.048Z,41.00
2018-07-26T13:33:11.488Z,40.90
2018-07-26T13:35:39.806Z,41.00
2018-07-26T13:38:08.146Z,41.00
2018-07-26T13:40:36.499Z,41.00
2018-07-26T13:43:04.842Z,41.00
2018-07-26T13:45:33.205Z,40.90
2018-07-26T13:48:01.531Z,40.90
2018-07-26T13:50:29.885Z,41.10
2018-07-26T13:52:58.220Z,41.20
2018-07-26T13:55:26.563Z,41.20
2018-07-26T13:57:54.909Z,41.30
2018-07-26T14:00:23.316Z,41.30
2018-07-26T14:02:51.635Z,41.40
2018-07-26T14:05:19.987Z,41.60
2018-07-26T14:07:48.560Z,41.60
2018-07-26T14:10:16.916Z,41.60
2018-07-26T14:12:45.247Z,41.70
2018-07-26T14:15:13.618Z,41.60
2018-07-26T14:17:41.956Z,41.60
2018-07-26T14:20:11.660Z,41.60
2018-07-26T14:22:40.320Z,41.80
2018-07-26T14:25:08.712Z,41.90
2018-07-26T14:30:06.419Z,42.20
2018-07-26T14:32:34.781Z,42.10
2018-07-26T14:35:03.199Z,42.00
2018-07-26T14:37:31.544Z,42.00
2018-07-26T14:39:59.899Z,41.90
2018-07-26T14:42:28.229Z,42.00
2018-07-26T14:44:56.639Z,42.20
2018-07-26T14:47:24.971Z,42.20
2018-07-26T14:49:53.324Z,42.30
2018-07-26T14:54:49.895Z,42.50
2018-07-26T14:57:18.216Z,42.60
2018-07-26T14:59:46.592Z,42.80
2018-07-26T15:02:14.922Z,42.80
2018-07-26T15:04:43.279Z,42.80
2018-07-26T15:07:11.599Z,42.90
2018-07-26T15:09:40.001Z,43.10
2018-07-26T15:12:08.336Z,43.10
2018-07-26T15:17:04.979Z,43.20
2018-07-26T15:19:33.367Z,43.30
2018-07-26T15:22:01.700Z,43.30
2018-07-26T15:24:31.656Z,43.30
2018-07-26T15:26:59.945Z,43.30
2018-07-26T15:31:56.379Z,43.50
2018-07-26T15:34:24.705Z,43.40
2018-07-26T15:36:53.072Z,43.30
2018-07-26T15:39:21.403Z,43.00
2018-07-26T15:41:49.755Z,42.80
2018-07-26T15:44:18.080Z,42.90
2018-07-26T15:46:46.425Z,43.20
2018-07-26T15:49:14.751Z,43.40
2018-07-26T15:54:11.187Z,43.70
2018-07-26T15:56:39.564Z,43.80
2018-07-26T15:59:07.883Z,43.80
2018-07-26T16:01:36.258Z,44.00
2018-07-26T16:04:04.616Z,44.00
2018-07-26T16:09:01.022Z,44.10
2018-07-26T16:11:29.404Z,44.10
2018-07-26T16:13:57.723Z,44.30
2018-07-26T16:16:26.071Z,44.40
2018-07-26T16:18:54.404Z,44.60
2018-07-26T16:21:22.756Z,44.80
2018-07-26T16:23:51.073Z,44.80
2018-07-26T16:26:19.425Z,44.40
2018-07-26T16:33:43.920Z,44.10
2018-07-26T16:36:12.275Z,44.20
2018-07-26T16:38:40.599Z,44.30
2018-07-26T16:43:37.040Z,44.30
2018-07-26T16:46:05.704Z,44.30
2018-07-26T16:48:34.047Z,44.40
2018-07-26T16:51:02.408Z,44.40
2018-07-26T16:53:30.759Z,44.50
2018-07-26T16:55:59.132Z,44.60
2018-07-26T16:58:27.509Z,44.60
2018-07-26T17:00:55.909Z,44.60
2018-07-26T17:03:24.236Z,44.50
2018-07-26T17:05:52.598Z,44.40
2018-07-26T17:08:20.947Z,44.30
2018-07-26T17:10:49.344Z,44.10
2018-07-26T17:13:17.716Z,44.10
2018-07-26T17:15:46.041Z,44.00
2018-07-26T17:18:14.414Z,43.90
2018-07-26T17:20:42.764Z,43.70
2018-07-26T17:25:39.182Z,43.40
2018-07-26T17:28:07.536Z,43.40
2018-07-26T17:30:35.864Z,43.60
2018-07-26T17:33:04.239Z,43.80
2018-07-26T17:35:32.583Z,43.90
2018-07-26T17:38:00.960Z,44.10
2018-07-26T17:40:29.284Z,44.40
2018-07-26T17:42:57.619Z,44.80
2018-07-26T17:45:25.970Z,45.00
2018-07-26T17:47:54.323Z,45.30
2018-07-26T17:50:22.646Z,45.50
2018-07-26T17:52:51.079Z,45.70
2018-07-26T17:55:19.431Z,45.80
2018-07-26T17:57:47.788Z,46.00
2018-07-26T18:00:16.165Z,46.10
2018-07-26T18:02:44.524Z,45.90
2018-07-26T18:05:12.891Z,45.70
2018-07-26T18:10:09.640Z,44.50
2018-07-26T18:12:38.021Z,43.80
2018-07-26T18:15:07.120Z,43.20
2018-07-26T18:20:03.572Z,42.20
2018-07-26T18:24:59.999Z,41.40
2018-07-26T18:27:28.654Z,41.00
2018-07-26T18:29:56.984Z,40.70
2018-07-26T18:32:25.335Z,40.50
2018-07-26T18:34:53.663Z,40.20
2018-07-26T18:37:22.116Z,39.90
2018-07-26T18:39:50.496Z,39.70
2018-07-26T18:42:18.875Z,39.40
2018-07-26T18:44:47.224Z,39.20
2018-07-26T18:47:15.610Z,39.00
2018-07-26T18:49:43.948Z,38.80
2018-07-26T18:52:12.313Z,38.50
2018-07-26T18:57:08.760Z,38.10
2018-07-26T19:02:05.603Z,37.70
2018-07-26T19:04:33.909Z,37.50
2018-07-26T19:09:30.639Z,37.20
2018-07-26T19:11:58.971Z,37.00
2018-07-26T19:14:27.431Z,36.80
2018-07-26T19:19:23.939Z,36.40
2018-07-26T19:21:52.307Z,36.20
2018-07-26T19:24:20.690Z,36.00
2018-07-26T19:26:49.034Z,35.80
2018-07-26T19:29:17.416Z,35.70
2018-07-26T19:31:45.767Z,35.50
2018-07-26T19:34:14.168Z,35.40
2018-07-26T19:36:42.531Z,35.20
2018-07-26T19:41:41.252Z,34.90
2018-07-26T19:44:09.630Z,34.70
2018-07-26T19:46:37.974Z,34.50
2018-07-26T19:49:06.433Z,34.40
2018-07-26T19:51:34.810Z,34.20
2018-07-26T19:54:03.236Z,34.00
2018-07-26T19:56:31.553Z,33.90
2018-07-26T19:58:59.934Z,33.70
2018-07-26T20:01:28.308Z,33.60
2018-07-26T20:03:56.727Z,33.50
2018-07-26T20:06:25.027Z,33.30
2018-07-26T20:08:53.392Z,33.20
2018-07-26T20:11:21.724Z,33.10
2018-07-26T20:13:50.104Z,33.00
2018-07-26T20:16:18.443Z,32.90
2018-07-26T20:18:46.807Z,32.80
2018-07-26T20:21:15.140Z,32.70
2018-07-26T20:23:43.505Z,32.60
2018-07-26T20:26:11.854Z,32.50
2018-07-26T20:28:40.235Z,32.40
2018-07-26T20:31:08.589Z,32.20
2018-07-26T20:33:36.956Z,32.10
2018-07-26T20:36:05.484Z,32.00
2018-07-26T20:38:33.819Z,31.90
2018-07-26T20:41:02.212Z,31.80
2018-07-26T20:43:30.593Z,31.70
2018-07-26T20:45:58.923Z,31.60
2018-07-26T20:50:55.432Z,31.50
2018-07-26T20:53:23.873Z,31.30
2018-07-26T20:55:52.226Z,31.30
2018-07-26T20:58:20.595Z,31.20
2018-07-26T21:00:48.983Z,31.20
2018-07-26T21:03:17.343Z,31.10
2018-07-26T21:05:45.707Z,31.00
2018-07-26T21:08:14.041Z,30.90
2018-07-26T21:10:42.412Z,30.90
2018-07-26T21:18:06.964Z,30.70
2018-07-26T21:20:35.744Z,30.60
2018-07-26T21:23:04.082Z,30.50
2018-07-26T21:25:32.429Z,30.40
2018-07-26T21:28:00.765Z,30.30
2018-07-26T21:35:25.276Z,30.10
2018-07-26T21:37:53.681Z,30.00
2018-07-26T21:40:22.051Z,30.00
2018-07-26T21:42:50.379Z,29.90
2018-07-26T21:45:18.748Z,29.90
2018-07-26T21:47:47.076Z,29.80
2018-07-26T21:50:15.435Z,29.80
2018-07-26T21:52:43.767Z,29.80
2018-07-26T21:55:12.119Z,29.70
2018-07-26T21:57:40.455Z,29.70
2018-07-26T22:00:10.332Z,29.60
2018-07-26T22:05:07.006Z,29.50
2018-07-26T22:07:35.660Z,29.40
2018-07-26T22:10:04.492Z,29.40
2018-07-26T22:12:32.841Z,29.40
2018-07-26T22:17:29.360Z,29.20
2018-07-26T22:19:57.727Z,29.20
2018-07-26T22:22:26.356Z,29.10
2018-07-26T22:24:54.737Z,29.00
2018-07-26T22:32:19.289Z,28.80
2018-07-26T22:34:47.668Z,28.70
2018-07-26T22:37:16.011Z,28.70
2018-07-26T22:39:44.377Z,28.60
2018-07-26T22:42:12.736Z,28.60
2018-07-26T22:44:41.104Z,28.50
2018-07-26T22:47:09.486Z,28.50
2018-07-26T22:49:37.825Z,28.50
2018-07-26T22:52:06.208Z,28.40
2018-07-26T22:54:34.568Z,28.40
2018-07-26T22:59:31.039Z,28.30
2018-07-26T23:01:59.460Z,28.30
2018-07-26T23:04:27.808Z,28.30
2018-07-26T23:06:56.175Z,28.30
2018-07-26T23:09:24.512Z,28.30
2018-07-26T23:11:52.867Z,28.20
2018-07-26T23:14:21.224Z,28.20
2018-07-26T23:16:49.575Z,28.10
2018-07-26T23:19:17.915Z,28.10
2018-07-26T23:21:46.283Z,28.10
2018-07-26T23:24:14.624Z,28.10
2018-07-26T23:26:42.981Z,28.00
2018-07-26T23:29:11.340Z,28.00
2018-07-26T23:31:39.726Z,28.00
2018-07-26T23:34:08.073Z,27.90
2018-07-26T23:36:36.449Z,28.00
2018-07-26T23:39:07.291Z,27.90
2018-07-26T23:41:35.675Z,27.90
2018-07-26T23:44:04.032Z,27.80
2018-07-26T23:46:32.382Z,27.80
2018-07-26T23:49:00.731Z,27.80
2018-07-26T23:51:29.107Z,27.70
2018-07-26T23:53:57.467Z,27.70
2018-07-26T23:56:25.846Z,27.60
2018-07-26T23:58:54.231Z,27.60
